createdAt,value
2023-03-06T00:00:55.188Z,67.90
2023-03-06T00:03:23.343Z,67.87
2023-03-06T00:05:50.730Z,68.21
2023-03-06T00:08:17.948Z,68.83
2023-03-06T00:10:45.982Z,68.39
2023-03-06T00:13:18.853Z,68.31
2023-03-06T00:15:47.371Z,68.13
2023-03-06T00:18:14.759Z,68.06
2023-03-06T00:20:43.682Z,67.86
2023-03-06T00:23:12.108Z,67.38
2023-03-06T00:25:42.900Z,67.52
2023-03-06T00:28:12.221Z,67.45
2023-03-06T00:30:39.649Z,67.42
2023-03-06T00:33:07.032Z,67.53
2023-03-06T00:35:34.292Z,67.53
2023-03-06T00:38:01.675Z,67.64
2023-03-06T00:40:28.859Z,68.09
2023-03-06T00:42:56.062Z,67.80
2023-03-06T00:45:23.312Z,67.40
2023-03-06T00:47:50.616Z,67.85
2023-03-06T00:50:17.851Z,67.94
2023-03-06T00:52:45.006Z,68.09
2023-03-06T00:55:12.510Z,68.17
2023-03-06T00:57:39.740Z,68.32
2023-03-06T01:00:08.339Z,68.31
2023-03-06T01:02:35.573Z,68.49
2023-03-06T01:05:02.818Z,68.90
2023-03-06T01:07:34.010Z,69.12
2023-03-06T01:10:01.172Z,68.76
2023-03-06T01:12:28.361Z,68.49
2023-03-06T01:14:55.593Z,68.71
2023-03-06T01:17:22.713Z,68.49
2023-03-06T01:19:49.998Z,68.60
2023-03-06T01:22:17.163Z,68.44
2023-03-06T01:24:44.403Z,68.38
2023-03-06T01:27:11.598Z,68.13
2023-03-06T01:29:38.762Z,68.18
2023-03-06T01:32:06.147Z,68.43
2023-03-06T01:34:33.355Z,68.47
2023-03-06T01:37:00.742Z,68.72
2023-03-06T01:39:28.743Z,68.64
2023-03-06T01:41:55.899Z,68.77
2023-03-06T01:44:23.136Z,69.32
2023-03-06T01:46:50.346Z,69.74
2023-03-06T01:49:35.108Z,69.98
2023-03-06T01:52:09.650Z,70.60
2023-03-06T01:54:46.450Z,71.06
2023-03-06T01:57:20.541Z,71.30
2023-03-06T01:59:53.014Z,71.82
2023-03-06T02:02:20.979Z,71.83
2023-03-06T02:04:48.583Z,72.05
2023-03-06T02:07:18.580Z,72.19
2023-03-06T02:09:45.887Z,72.78
2023-03-06T02:12:16.795Z,73.46
2023-03-06T02:14:44.320Z,73.41
2023-03-06T02:17:14.157Z,73.90
2023-03-06T02:19:50.249Z,73.89
2023-03-06T02:22:19.752Z,74.15
2023-03-06T02:24:56.699Z,74.16
2023-03-06T02:27:25.658Z,74.05
2023-03-06T02:29:55.365Z,73.90
2023-03-06T02:32:22.549Z,73.94
2023-03-06T02:34:55.580Z,74.53
2023-03-06T02:37:24.890Z,74.71
2023-03-06T02:40:00.323Z,74.37
2023-03-06T02:42:48.790Z,74.67
2023-03-06T02:45:23.033Z,74.97
2023-03-06T02:47:50.207Z,75.67
2023-03-06T02:50:17.601Z,75.85
2023-03-06T02:52:44.740Z,75.84
2023-03-06T02:55:11.935Z,76.18
2023-03-06T02:57:39.167Z,76.07
2023-03-06T03:00:07.152Z,75.64
2023-03-06T03:02:34.812Z,75.87
2023-03-06T03:05:02.221Z,75.82
2023-03-06T03:07:30.563Z,75.84
2023-03-06T03:09:58.433Z,75.74
2023-03-06T03:12:25.735Z,75.07
2023-03-06T03:14:52.970Z,74.54
2023-03-06T03:17:20.203Z,74.13
2023-03-06T03:19:47.343Z,73.84
2023-03-06T03:22:14.851Z,73.54
2023-03-06T03:24:42.521Z,73.69
2023-03-06T03:27:10.764Z,73.77
2023-03-06T03:29:38.143Z,73.95
2023-03-06T03:32:06.191Z,74.07
2023-03-06T03:34:33.570Z,74.32
2023-03-06T03:37:00.857Z,74.36
2023-03-06T03:39:28.041Z,74.60
2023-03-06T03:41:55.211Z,74.71
2023-03-06T03:44:22.867Z,74.61
2023-03-06T03:46:50.678Z,74.17
2023-03-06T03:49:21.600Z,74.21
2023-03-06T03:51:48.951Z,73.98
2023-03-06T03:54:16.234Z,73.95
2023-03-06T03:56:46.677Z,74.00
2023-03-06T03:59:19.771Z,74.02
2023-03-06T04:02:07.243Z,74.25
2023-03-06T04:04:40.915Z,74.42
2023-03-06T04:07:08.631Z,74.16
2023-03-06T04:09:36.686Z,74.08
2023-03-06T04:12:05.178Z,74.19
2023-03-06T04:14:34.300Z,74.13
2023-03-06T04:17:01.677Z,74.13
2023-03-06T04:19:28.866Z,73.95
2023-03-06T04:21:56.078Z,73.95
2023-03-06T04:24:23.818Z,74.31
2023-03-06T04:26:51.338Z,73.80
2023-03-06T04:29:18.470Z,73.47
2023-03-06T04:31:46.255Z,73.40
2023-03-06T04:34:13.935Z,73.19
2023-03-06T04:36:45.176Z,72.97
2023-03-06T04:39:14.404Z,72.84
2023-03-06T04:41:42.445Z,72.86
2023-03-06T04:44:09.872Z,73.23
2023-03-06T04:46:37.157Z,73.35
2023-03-06T04:49:04.393Z,73.53
2023-03-06T04:51:31.607Z,73.63
2023-03-06T04:53:59.505Z,74.30
2023-03-06T04:56:26.655Z,74.66
2023-03-06T04:58:53.847Z,74.75
2023-03-06T05:01:21.115Z,74.64
2023-03-06T05:03:49.754Z,74.16
2023-03-06T05:06:16.865Z,74.18
2023-03-06T05:08:44.044Z,74.25
2023-03-06T05:11:11.370Z,73.89
2023-03-06T05:13:38.597Z,73.95
2023-03-06T05:16:06.851Z,73.79
2023-03-06T05:18:35.081Z,73.61
2023-03-06T05:21:03.047Z,73.52
2023-03-06T05:23:31.676Z,73.71
2023-03-06T05:25:59.609Z,73.66
2023-03-06T05:28:26.870Z,73.88
2023-03-06T05:30:53.996Z,74.20
2023-03-06T05:33:21.168Z,74.13
2023-03-06T05:35:49.030Z,74.30
2023-03-06T05:38:16.961Z,74.99
2023-03-06T05:40:44.968Z,74.74
2023-03-06T05:43:12.839Z,74.46
2023-03-06T05:45:40.750Z,74.92
2023-03-06T05:48:08.628Z,75.20
2023-03-06T05:50:35.839Z,75.13
2023-03-06T05:53:03.867Z,76.05
2023-03-06T05:55:31.006Z,75.92
2023-03-06T05:57:58.256Z,76.39
2023-03-06T06:00:25.595Z,76.42
2023-03-06T06:02:52.778Z,76.28
2023-03-06T06:05:19.955Z,75.92
2023-03-06T06:07:47.124Z,76.40
2023-03-06T06:10:14.358Z,75.98
2023-03-06T06:12:41.636Z,75.61
2023-03-06T06:15:09.177Z,75.12
2023-03-06T06:17:36.371Z,74.91
2023-03-06T06:20:04.207Z,75.03
2023-03-06T06:22:31.542Z,74.75
2023-03-06T06:24:58.679Z,75.14
2023-03-06T06:27:25.810Z,74.99
2023-03-06T06:29:53.001Z,74.71
2023-03-06T06:32:20.409Z,74.49
2023-03-06T06:34:47.582Z,74.36
2023-03-06T06:37:14.762Z,74.32
2023-03-06T06:39:42.162Z,74.31
2023-03-06T06:42:29.901Z,74.51
2023-03-06T06:44:57.422Z,74.49
2023-03-06T06:47:25.796Z,74.57
2023-03-06T06:49:55.081Z,74.60
2023-03-06T06:52:24.060Z,74.51
2023-03-06T06:54:52.180Z,74.96
2023-03-06T06:57:19.383Z,75.06
2023-03-06T06:59:46.592Z,75.04
2023-03-06T07:02:15.976Z,75.05
2023-03-06T07:04:56.537Z,75.28
2023-03-06T07:07:30.066Z,75.33
2023-03-06T07:09:57.230Z,75.62
2023-03-06T07:12:24.476Z,75.20
2023-03-06T07:14:51.722Z,75.22
2023-03-06T07:17:21.246Z,75.27
2023-03-06T07:19:48.590Z,75.01
2023-03-06T07:22:16.832Z,74.78
2023-03-06T07:24:43.993Z,74.75
2023-03-06T07:27:11.430Z,75.05
2023-03-06T07:29:38.615Z,74.61
2023-03-06T07:32:06.141Z,74.55
2023-03-06T07:34:36.576Z,74.41
2023-03-06T07:37:03.867Z,74.13
2023-03-06T07:39:31.054Z,74.33
2023-03-06T07:41:58.757Z,74.40
2023-03-06T07:44:26.425Z,74.11
2023-03-06T07:46:53.830Z,74.43
2023-03-06T07:49:21.208Z,74.07
2023-03-06T07:51:48.391Z,74.40
2023-03-06T07:54:15.524Z,74.10
2023-03-06T07:56:42.741Z,73.61
2023-03-06T07:59:11.637Z,73.80
2023-03-06T08:01:40.285Z,72.96
2023-03-06T08:04:07.733Z,72.89
2023-03-06T08:06:35.063Z,72.91
2023-03-06T08:09:03.001Z,73.05
2023-03-06T08:11:30.797Z,72.40
2023-03-06T08:13:58.517Z,72.46
2023-03-06T08:16:28.860Z,71.96
2023-03-06T08:18:57.049Z,71.59
2023-03-06T08:21:26.404Z,71.87
2023-03-06T08:23:53.955Z,71.92
2023-03-06T08:26:24.160Z,71.90
2023-03-06T08:28:53.042Z,71.77
2023-03-06T08:31:43.192Z,71.08
2023-03-06T08:34:13.339Z,70.81
2023-03-06T08:36:40.514Z,71.27
2023-03-06T08:39:08.354Z,70.58
2023-03-06T08:41:36.883Z,70.34
2023-03-06T08:44:04.618Z,70.43
2023-03-06T08:46:32.878Z,69.70
2023-03-06T08:49:00.278Z,69.52
2023-03-06T08:51:28.936Z,69.31
2023-03-06T08:53:57.873Z,68.93
2023-03-06T08:56:27.615Z,68.78
2023-03-06T08:58:56.704Z,68.49
2023-03-06T09:01:26.743Z,68.35
2023-03-06T09:03:56.664Z,67.77
2023-03-06T09:06:27.210Z,67.18
2023-03-06T09:08:56.617Z,66.32
2023-03-06T09:11:27.693Z,66.00
2023-03-06T09:13:56.412Z,65.59
2023-03-06T09:16:24.225Z,64.03
2023-03-06T09:18:53.325Z,62.56
2023-03-06T09:21:23.424Z,60.78
2023-03-06T09:23:52.416Z,58.94
2023-03-06T09:26:32.835Z,58.30
2023-03-06T09:29:08.322Z,58.63
2023-03-06T09:31:38.139Z,57.96
2023-03-06T09:34:05.684Z,58.14
2023-03-06T09:36:42.772Z,57.07
2023-03-06T09:39:18.124Z,57.04
2023-03-06T09:41:50.111Z,57.63
2023-03-06T09:44:24.635Z,56.98
2023-03-06T09:47:10.869Z,57.66
2023-03-06T09:54:14.040Z,56.59
2023-03-06T09:56:48.824Z,56.17
2023-03-06T09:59:25.385Z,56.90
2023-03-06T10:02:01.471Z,55.97
2023-03-06T10:04:36.205Z,56.04
2023-03-06T10:07:19.172Z,56.47
2023-03-06T10:09:57.950Z,55.54
2023-03-06T10:12:38.220Z,54.17
2023-03-06T10:15:18.037Z,53.78
2023-03-06T10:17:46.398Z,53.76
2023-03-06T10:20:17.448Z,53.48
2023-03-06T10:23:01.149Z,52.76
2023-03-06T10:25:43.871Z,51.99
2023-03-06T10:28:28.770Z,52.24
2023-03-06T10:31:01.798Z,51.80
2023-03-06T10:33:43.613Z,52.57
2023-03-06T10:36:15.824Z,52.10
2023-03-06T10:38:44.594Z,52.64
2023-03-06T10:41:11.736Z,52.39
2023-03-06T10:43:44.127Z,52.64
2023-03-06T10:46:26.379Z,53.55
2023-03-06T10:48:59.226Z,53.38
2023-03-06T10:51:27.476Z,52.85
2023-03-06T10:54:18.464Z,52.90
2023-03-06T10:56:47.241Z,52.58
2023-03-06T10:59:17.740Z,52.87
2023-03-06T11:01:48.191Z,53.00
2023-03-06T11:04:32.203Z,51.52
2023-03-06T11:07:14.895Z,50.55
2023-03-06T11:09:57.302Z,49.74
2023-03-06T11:12:42.611Z,49.97
2023-03-06T11:15:17.877Z,49.69
2023-03-06T11:17:48.255Z,50.16
2023-03-06T11:20:18.564Z,50.22
2023-03-06T11:22:50.816Z,50.09
2023-03-06T11:25:20.736Z,49.74
2023-03-06T11:27:56.781Z,49.81
2023-03-06T11:30:30.355Z,48.98
2023-03-06T11:33:05.945Z,49.11
2023-03-06T11:36:00.672Z,48.90
2023-03-06T11:38:42.922Z,48.78
2023-03-06T11:41:20.465Z,48.78
2023-03-06T11:44:00.726Z,49.06
2023-03-06T11:46:32.668Z,48.71
2023-03-06T11:49:16.990Z,48.93
2023-03-06T11:51:55.087Z,48.60
2023-03-06T11:54:23.063Z,48.96
2023-03-06T11:57:17.993Z,48.87
2023-03-06T12:00:07.608Z,48.75
2023-03-06T12:02:35.846Z,48.17
2023-03-06T12:05:35.039Z,48.54
2023-03-06T12:08:36.767Z,49.01
2023-03-06T12:11:33.233Z,48.78
2023-03-06T12:14:02.393Z,47.47
2023-03-06T12:17:15.482Z,48.52
2023-03-06T12:20:00.694Z,48.79
2023-03-06T12:22:31.333Z,49.05
2023-03-06T12:25:20.333Z,49.85
2023-03-06T12:28:10.705Z,49.42
2023-03-06T12:31:10.241Z,50.31
2023-03-06T12:34:00.094Z,51.32
2023-03-06T12:36:35.409Z,51.00
2023-03-06T12:39:14.541Z,51.65
2023-03-06T12:42:22.596Z,52.19
2023-03-06T12:45:24.811Z,54.06
2023-03-06T12:47:56.678Z,58.13
2023-03-06T12:50:30.010Z,59.19
2023-03-06T12:53:06.551Z,61.75
2023-03-06T12:55:46.489Z,61.73
2023-03-06T12:58:29.191Z,60.07
2023-03-06T13:01:34.142Z,61.43
2023-03-06T13:04:26.271Z,60.55
2023-03-06T13:07:02.240Z,59.49
2023-03-06T13:09:47.844Z,59.03
2023-03-06T13:12:57.680Z,59.03
2023-03-06T13:15:39.084Z,59.24
2023-03-06T13:18:21.688Z,59.83
2023-03-06T13:20:50.895Z,59.75
2023-03-06T13:23:33.218Z,59.19
2023-03-06T13:26:03.397Z,58.87
2023-03-06T13:28:54.068Z,58.64
2023-03-06T13:31:36.672Z,59.33
2023-03-06T13:34:23.576Z,59.48
2023-03-06T13:36:50.800Z,59.81
2023-03-06T13:39:18.016Z,60.52
2023-03-06T13:41:58.629Z,60.77
2023-03-06T13:44:25.816Z,61.54
2023-03-06T13:46:59.671Z,62.86
2023-03-06T13:49:27.744Z,63.12
2023-03-06T13:51:55.221Z,63.54
2023-03-06T13:54:35.895Z,65.04
2023-03-06T13:57:12.101Z,65.67
2023-03-06T14:00:03.107Z,68.53
2023-03-06T14:03:03.628Z,69.52
2023-03-06T14:05:50.799Z,70.89
2023-03-06T14:08:28.396Z,71.54
2023-03-06T14:11:14.010Z,73.22
2023-03-06T14:13:50.682Z,73.01
2023-03-06T14:16:24.117Z,74.38
2023-03-06T14:18:53.400Z,73.70
2023-03-06T14:21:33.440Z,73.49
2023-03-06T14:24:03.655Z,73.73
2023-03-06T14:26:41.360Z,74.69
2023-03-06T14:29:27.112Z,73.76
2023-03-06T14:31:59.535Z,73.52
2023-03-06T14:34:34.915Z,74.69
2023-03-06T14:37:05.627Z,74.39
2023-03-06T14:39:44.077Z,74.87
2023-03-06T14:42:21.113Z,74.73
2023-03-06T14:44:59.607Z,74.69
2023-03-06T14:47:29.876Z,74.31
2023-03-06T14:50:25.218Z,73.78
2023-03-06T14:52:57.716Z,74.55
2023-03-06T14:55:27.994Z,75.20
2023-03-06T14:58:23.759Z,75.54
2023-03-06T15:00:54.673Z,75.24
2023-03-06T15:03:33.806Z,75.32
2023-03-06T15:06:01.683Z,76.46
2023-03-06T15:08:34.511Z,77.10
2023-03-06T15:11:06.505Z,76.20
2023-03-06T15:13:34.783Z,76.57
2023-03-06T15:16:30.149Z,77.23
2023-03-06T15:19:02.624Z,76.95
2023-03-06T15:21:36.523Z,77.27
2023-03-06T15:24:30.535Z,78.47
2023-03-06T15:27:01.815Z,78.96
2023-03-06T15:29:29.181Z,79.31
2023-03-06T15:32:16.382Z,79.17
2023-03-06T15:34:43.715Z,80.59
2023-03-06T15:37:26.915Z,81.30
2023-03-06T15:40:19.400Z,80.66
2023-03-06T15:42:47.220Z,80.94
2023-03-06T15:45:18.871Z,81.26
2023-03-06T15:47:48.193Z,81.07
2023-03-06T15:50:18.199Z,80.71
2023-03-06T15:52:46.676Z,79.89
2023-03-06T15:55:16.746Z,79.69
2023-03-06T15:57:50.460Z,79.43
2023-03-06T16:00:29.541Z,79.72
2023-03-06T16:02:57.719Z,79.91
2023-03-06T16:05:25.776Z,80.40
2023-03-06T16:07:56.650Z,79.28
2023-03-06T16:10:27.114Z,79.39
2023-03-06T16:12:59.417Z,80.31
2023-03-06T16:15:30.675Z,80.25
2023-03-06T16:17:59.835Z,80.48
2023-03-06T16:20:28.906Z,80.96
2023-03-06T16:22:56.514Z,81.32
2023-03-06T16:25:26.112Z,81.41
2023-03-06T16:28:04.794Z,81.67
2023-03-06T16:30:33.768Z,81.57
2023-03-06T16:33:01.796Z,81.95
2023-03-06T16:35:29.064Z,81.74
2023-03-06T16:37:56.467Z,81.62
2023-03-06T16:40:24.983Z,82.04
2023-03-06T16:42:54.067Z,82.26
2023-03-06T16:45:23.380Z,82.34
2023-03-06T16:47:50.841Z,82.22
2023-03-06T16:50:22.665Z,82.16
2023-03-06T16:52:50.476Z,82.27
2023-03-06T16:55:17.758Z,82.54
2023-03-06T16:57:45.399Z,82.91
2023-03-06T17:00:15.752Z,83.10
2023-03-06T17:02:43.472Z,83.71
2023-03-06T17:05:12.002Z,84.45
2023-03-06T17:07:40.002Z,83.41
2023-03-06T17:10:11.054Z,83.31
2023-03-06T17:12:38.417Z,83.26
2023-03-06T17:15:07.080Z,84.19
2023-03-06T17:17:34.710Z,84.48
2023-03-06T17:20:02.175Z,83.96
2023-03-06T17:22:33.144Z,82.15
2023-03-06T17:25:06.748Z,82.11
2023-03-06T17:27:34.833Z,80.84
2023-03-06T17:30:02.260Z,80.99
2023-03-06T17:32:29.547Z,80.98
2023-03-06T17:34:56.759Z,81.15
2023-03-06T17:37:24.195Z,81.59
2023-03-06T17:39:51.402Z,81.91
2023-03-06T17:42:18.591Z,82.09
2023-03-06T17:44:45.738Z,82.01
2023-03-06T17:47:12.968Z,82.08
2023-03-06T17:49:40.208Z,82.57
2023-03-06T17:52:07.912Z,82.69
2023-03-06T17:54:35.895Z,82.92
2023-03-06T17:57:05.347Z,83.19
2023-03-06T17:59:36.279Z,83.10
2023-03-06T18:02:03.653Z,83.23
2023-03-06T18:04:30.878Z,83.34
2023-03-06T18:06:58.348Z,83.46
2023-03-06T18:09:25.652Z,83.61
2023-03-06T18:11:52.813Z,83.70
2023-03-06T18:14:19.991Z,84.44
2023-03-06T18:16:47.240Z,84.93
2023-03-06T18:19:15.692Z,84.99
2023-03-06T18:21:42.898Z,84.95
2023-03-06T18:24:12.739Z,85.37
2023-03-06T18:26:44.226Z,85.60
2023-03-06T18:29:11.986Z,86.01
2023-03-06T18:31:41.417Z,86.36
2023-03-06T18:34:12.343Z,86.22
2023-03-06T18:36:42.452Z,85.94
2023-03-06T18:39:12.036Z,85.84
2023-03-06T18:41:39.210Z,85.27
2023-03-06T18:44:06.469Z,85.26
2023-03-06T18:46:37.223Z,85.70
2023-03-06T18:49:05.216Z,86.08
2023-03-06T18:51:32.797Z,85.92
2023-03-06T18:54:01.490Z,86.36
2023-03-06T18:56:28.791Z,86.80
2023-03-06T18:58:56.033Z,86.85
2023-03-06T19:01:23.312Z,87.16
2023-03-06T19:03:50.709Z,88.31
2023-03-06T19:06:18.504Z,87.89
2023-03-06T19:08:45.703Z,87.03
2023-03-06T19:11:15.202Z,87.72
2023-03-06T19:13:43.404Z,86.21
2023-03-06T19:16:22.092Z,86.48
2023-03-06T19:18:49.588Z,85.33
2023-03-06T19:21:21.902Z,85.77
2023-03-06T19:23:49.171Z,85.99
2023-03-06T19:26:18.675Z,86.56
2023-03-06T19:28:46.587Z,85.73
2023-03-06T19:31:20.863Z,85.72
2023-03-06T19:33:49.264Z,86.01
2023-03-06T19:36:18.186Z,85.87
2023-03-06T19:38:50.345Z,85.94
2023-03-06T19:41:17.838Z,86.02
2023-03-06T19:43:44.995Z,86.08
2023-03-06T19:46:13.872Z,86.13
2023-03-06T19:48:41.824Z,86.12
2023-03-06T19:51:09.335Z,86.01
2023-03-06T19:53:37.099Z,86.38
2023-03-06T19:56:15.717Z,86.27
2023-03-06T19:58:43.133Z,86.19
2023-03-06T20:01:12.750Z,86.03
2023-03-06T20:03:40.468Z,86.37
2023-03-06T20:06:13.457Z,86.27
2023-03-06T20:08:41.179Z,86.33
2023-03-06T20:11:23.049Z,86.73
2023-03-06T20:13:51.052Z,87.14
2023-03-06T20:16:19.175Z,86.96
2023-03-06T20:18:46.842Z,87.48
2023-03-06T20:21:14.864Z,87.52
2023-03-06T20:23:42.530Z,87.67
2023-03-06T20:26:12.122Z,88.17
2023-03-06T20:28:41.414Z,88.29
2023-03-06T20:31:17.767Z,88.41
2023-03-06T20:33:47.051Z,88.67
2023-03-06T20:36:18.845Z,88.47
2023-03-06T20:38:47.669Z,88.63
2023-03-06T20:41:19.754Z,88.54
2023-03-06T20:43:47.310Z,88.29
2023-03-06T20:46:15.071Z,88.61
2023-03-06T20:48:43.089Z,88.51
2023-03-06T20:51:24.908Z,88.90
2023-03-06T20:53:56.013Z,89.98
2023-03-06T20:56:29.564Z,90.27
2023-03-06T20:58:57.495Z,90.20
2023-03-06T21:01:28.860Z,90.08
2023-03-06T21:03:56.978Z,89.79
2023-03-06T21:06:25.220Z,89.73
2023-03-06T21:08:52.650Z,89.25
2023-03-06T21:11:19.976Z,90.07
2023-03-06T21:13:47.246Z,89.25
2023-03-06T21:16:18.748Z,88.87
2023-03-06T21:18:46.595Z,88.54
2023-03-06T21:21:16.771Z,88.18
2023-03-06T21:23:45.522Z,89.20
2023-03-06T21:26:14.722Z,89.75
2023-03-06T21:28:42.470Z,89.04
2023-03-06T21:31:11.833Z,88.12
2023-03-06T21:33:39.366Z,89.16
2023-03-06T21:36:07.307Z,88.93
2023-03-06T21:38:34.967Z,89.19
2023-03-06T21:41:11.345Z,89.39
2023-03-06T21:43:38.822Z,89.76
2023-03-06T21:46:06.124Z,89.41
2023-03-06T21:48:33.815Z,89.36
2023-03-06T21:51:12.861Z,88.83
2023-03-06T21:53:42.860Z,89.18
2023-03-06T21:56:10.915Z,88.55
2023-03-06T21:58:38.229Z,88.62
2023-03-06T22:01:26.526Z,89.16
2023-03-06T22:03:54.706Z,89.30
2023-03-06T22:06:24.987Z,88.66
2023-03-06T22:08:52.700Z,88.15
2023-03-06T22:11:21.671Z,89.34
2023-03-06T22:13:49.302Z,87.89
2023-03-06T22:16:17.616Z,87.82
2023-03-06T22:18:46.286Z,87.96
2023-03-06T22:21:15.508Z,88.25
2023-03-06T22:23:43.415Z,87.92
2023-03-06T22:26:12.969Z,87.83
2023-03-06T22:28:40.822Z,88.07
2023-03-06T22:31:13.974Z,88.26
2023-03-06T22:33:41.657Z,89.23
2023-03-06T22:36:12.040Z,88.43
2023-03-06T22:38:41.577Z,88.21
2023-03-06T22:41:09.785Z,88.34
2023-03-06T22:43:37.518Z,88.67
2023-03-06T22:46:07.256Z,88.43
2023-03-06T22:48:35.189Z,88.15
2023-03-06T22:51:07.742Z,87.89
2023-03-06T22:53:35.351Z,88.86
2023-03-06T22:56:04.838Z,89.56
2023-03-06T22:58:37.239Z,89.83
2023-03-06T23:01:12.692Z,90.49
2023-03-06T23:03:42.314Z,89.32
2023-03-06T23:06:14.406Z,89.73
2023-03-06T23:08:42.941Z,89.54
2023-03-06T23:11:12.871Z,90.33
2023-03-06T23:13:58.942Z,89.76
2023-03-06T23:16:45.415Z,89.23
2023-03-06T23:19:31.363Z,88.76
2023-03-06T23:22:17.497Z,89.69
2023-03-06T23:25:03.620Z,89.86
2023-03-06T23:27:30.875Z,89.59
2023-03-06T23:29:59.110Z,88.94
2023-03-06T23:32:26.394Z,88.41
2023-03-06T23:34:53.731Z,87.77
2023-03-06T23:37:20.932Z,87.13
2023-03-06T23:39:48.113Z,87.33
2023-03-06T23:42:15.479Z,87.03
2023-03-06T23:44:42.699Z,87.55
2023-03-06T23:47:09.870Z,87.33
2023-03-06T23:49:37.006Z,87.13
2023-03-06T23:52:04.448Z,87.70
2023-03-06T23:54:33.094Z,87.33
2023-03-06T23:57:00.294Z,87.08
2023-03-06T23:59:27.454Z,87.23
